createdAt,value
2018-04-30T00:02:03.570Z,15.00
2018-04-30T00:04:33.336Z,13.97
2018-04-30T00:07:02.812Z,12.40
2018-04-30T00:09:32.280Z,16.03
2018-04-30T00:12:01.804Z,11.57
2018-04-30T00:17:51.938Z,13.30
2018-04-30T00:20:21.192Z,10.13
2018-04-30T00:22:50.488Z,15.00
2018-04-30T00:25:19.962Z,15.73
2018-04-30T00:27:49.170Z,9.60
2018-04-30T00:30:18.462Z,9.70
2018-04-30T00:32:48.668Z,10.63
2018-04-30T00:35:17.896Z,11.50
2018-04-30T00:37:47.924Z,11.37
2018-04-30T00:40:17.200Z,11.30
2018-04-30T00:43:12.934Z,11.17
2018-04-30T00:45:42.400Z,12.10
2018-04-30T00:48:11.812Z,13.80
2018-04-30T00:50:41.244Z,11.73
2018-04-30T00:53:10.604Z,12.53
2018-04-30T00:55:40.044Z,15.17
2018-04-30T00:58:09.353Z,9.70
2018-04-30T01:04:00.923Z,7.93
2018-04-30T01:06:30.070Z,11.53
2018-04-30T01:08:59.495Z,10.93
2018-04-30T01:11:30.731Z,12.60
2018-04-30T01:14:00.649Z,10.97
2018-04-30T01:16:43.706Z,10.07
2018-04-30T01:19:13.316Z,10.17
2018-04-30T01:21:42.618Z,10.03
2018-04-30T01:24:11.799Z,11.13
2018-04-30T01:26:41.064Z,8.67
2018-04-30T01:29:10.278Z,10.17
2018-04-30T01:31:39.521Z,11.90
2018-04-30T01:34:08.760Z,9.00
2018-04-30T01:36:38.035Z,8.73
2018-04-30T01:39:07.256Z,10.93
2018-04-30T01:41:36.463Z,12.30
2018-04-30T01:47:26.524Z,11.90
2018-04-30T01:49:56.001Z,10.70
2018-04-30T01:52:25.508Z,9.03
2018-04-30T01:54:54.878Z,12.20
2018-04-30T01:57:24.243Z,13.90
2018-04-30T01:59:54.367Z,11.37
2018-04-30T02:02:24.666Z,12.03
2018-04-30T02:04:54.090Z,7.70
2018-04-30T02:07:23.542Z,12.17
2018-04-30T02:09:53.736Z,13.77
2018-04-30T02:12:23.097Z,9.63
2018-04-30T02:14:52.568Z,20.03
2018-04-30T02:17:22.068Z,10.00
2018-04-30T02:19:51.541Z,10.40
2018-04-30T02:22:20.916Z,13.03
2018-04-30T02:24:50.295Z,10.77
2018-04-30T02:30:40.438Z,9.93
2018-04-30T02:33:09.896Z,7.17
2018-04-30T02:35:39.552Z,17.20
2018-04-30T02:38:09.379Z,17.03
2018-04-30T02:40:40.067Z,15.23
2018-04-30T02:43:09.930Z,15.83
2018-04-30T02:45:40.122Z,9.63
2018-04-30T02:48:09.538Z,13.87
2018-04-30T02:50:39.132Z,13.63
2018-04-30T02:53:09.012Z,22.90
2018-04-30T02:59:02.589Z,21.03
2018-04-30T03:01:32.207Z,19.13
2018-04-30T03:04:01.641Z,22.23
2018-04-30T03:06:32.012Z,25.13
2018-04-30T03:09:01.347Z,25.13
2018-04-30T03:11:30.586Z,26.83
2018-04-30T03:14:00.027Z,22.57
2018-04-30T03:16:29.341Z,16.93
2018-04-30T03:18:58.708Z,21.27
2018-04-30T03:24:49.436Z,25.17
2018-04-30T03:27:18.840Z,18.63
2018-04-30T03:29:50.877Z,28.87
2018-04-30T03:32:20.411Z,26.93
2018-04-30T03:34:50.332Z,34.47
2018-04-30T03:37:19.833Z,25.90
2018-04-30T03:39:50.157Z,27.37
2018-04-30T03:42:19.517Z,29.37
2018-04-30T03:44:48.925Z,38.60
2018-04-30T03:50:47.419Z,24.97
2018-04-30T03:53:16.923Z,20.53
2018-04-30T03:55:46.280Z,26.63
2018-04-30T03:58:15.881Z,22.27
2018-04-30T04:00:58.516Z,17.90
2018-04-30T04:03:42.083Z,23.33
2018-04-30T04:06:20.809Z,20.60
2018-04-30T04:08:50.258Z,21.83
2018-04-30T04:11:19.664Z,18.50
2018-04-30T04:13:49.027Z,17.47
2018-04-30T04:16:18.445Z,21.73
2018-04-30T04:18:48.575Z,17.60
2018-04-30T04:21:17.924Z,18.70
2018-04-30T04:23:47.668Z,34.90
2018-04-30T04:26:17.172Z,31.10
2018-04-30T04:28:46.791Z,24.30
2018-04-30T04:31:16.364Z,19.37
2018-04-30T04:33:45.744Z,19.90
2018-04-30T04:36:16.198Z,12.77
2018-04-30T04:38:45.627Z,11.73
2018-04-30T04:41:16.016Z,13.43
2018-04-30T04:43:45.379Z,11.07
2018-04-30T04:46:14.887Z,11.23
2018-04-30T04:48:44.376Z,15.60
2018-04-30T04:51:14.565Z,14.83
2018-04-30T04:53:43.979Z,12.80
2018-04-30T04:56:13.471Z,17.83
2018-04-30T04:58:42.857Z,23.37
2018-04-30T05:01:12.275Z,22.73
2018-04-30T05:03:41.703Z,19.73
2018-04-30T05:06:11.188Z,13.83
2018-04-30T05:08:40.553Z,13.83
2018-04-30T05:11:09.976Z,9.87
2018-04-30T05:13:39.384Z,13.10
2018-04-30T05:16:08.789Z,13.77
2018-04-30T05:18:38.732Z,12.43
2018-04-30T05:21:08.857Z,12.73
2018-04-30T05:23:38.404Z,13.37
2018-04-30T05:26:07.814Z,13.27
2018-04-30T05:28:37.164Z,10.67
2018-04-30T05:31:06.508Z,13.97
2018-04-30T05:33:35.907Z,12.03
2018-04-30T05:36:05.561Z,9.43
2018-04-30T05:38:34.927Z,10.80
2018-04-30T05:41:04.331Z,13.67
2018-04-30T05:43:33.699Z,17.90
2018-04-30T05:46:03.044Z,17.33
2018-04-30T05:48:32.566Z,15.57
2018-04-30T05:51:01.916Z,17.00
2018-04-30T05:53:31.298Z,17.00
2018-04-30T05:56:00.782Z,17.47
2018-04-30T05:58:30.287Z,15.40
2018-04-30T06:00:59.763Z,18.70
2018-04-30T06:03:29.166Z,18.20
2018-04-30T06:05:58.599Z,23.80
2018-04-30T06:08:27.955Z,41.23
2018-04-30T06:10:57.508Z,57.80
2018-04-30T06:13:26.864Z,45.80
2018-04-30T06:15:56.418Z,38.93
2018-04-30T06:18:26.025Z,45.07
2018-04-30T06:20:55.569Z,42.10
2018-04-30T06:23:25.729Z,48.43
2018-04-30T06:25:56.485Z,48.73
2018-04-30T06:28:25.904Z,52.67
2018-04-30T06:30:55.425Z,50.17
2018-04-30T06:33:25.703Z,68.07
2018-04-30T06:35:55.494Z,70.40
2018-04-30T06:45:17.252Z,67.00
2018-04-30T06:47:46.448Z,60.23
2018-04-30T06:50:15.590Z,62.63
2018-04-30T06:52:44.778Z,69.10
2018-04-30T06:55:14.131Z,62.33
2018-04-30T06:57:43.275Z,58.17
2018-04-30T07:00:13.365Z,63.47
2018-04-30T07:02:43.332Z,58.30
2018-04-30T07:05:12.540Z,61.10
2018-04-30T07:07:41.833Z,56.27
2018-04-30T07:10:11.030Z,55.70
2018-04-30T07:12:40.219Z,58.40
2018-04-30T07:15:09.457Z,50.03
2018-04-30T07:17:38.595Z,54.97
2018-04-30T07:20:07.817Z,44.90
2018-04-30T07:22:37.257Z,38.43
2018-04-30T07:25:06.559Z,37.67
2018-04-30T07:27:35.761Z,37.83
2018-04-30T07:30:05.164Z,37.57
2018-04-30T07:32:34.339Z,30.50
2018-04-30T07:35:03.530Z,29.73
2018-04-30T07:37:32.755Z,22.37
2018-04-30T07:40:01.957Z,19.53
2018-04-30T07:42:31.110Z,19.33
2018-04-30T07:45:00.435Z,19.80
2018-04-30T07:47:30.558Z,23.77
2018-04-30T07:50:00.059Z,25.03
2018-04-30T07:52:29.210Z,18.60
2018-04-30T07:54:58.473Z,21.07
2018-04-30T07:57:27.944Z,18.97
2018-04-30T07:59:57.350Z,19.83
2018-04-30T08:02:26.582Z,18.43
2018-04-30T08:04:55.934Z,22.63
2018-04-30T08:07:25.071Z,25.77
2018-04-30T08:09:54.254Z,22.03
2018-04-30T08:12:23.474Z,26.73
2018-04-30T08:14:52.613Z,23.13
2018-04-30T08:17:21.807Z,30.23
2018-04-30T08:19:51.118Z,29.53
2018-04-30T08:22:20.819Z,26.50
2018-04-30T08:24:50.928Z,27.27
2018-04-30T08:27:20.094Z,33.50
2018-04-30T08:29:49.309Z,30.10
2018-04-30T08:32:18.746Z,43.97
2018-04-30T08:34:48.061Z,38.83
2018-04-30T08:37:17.219Z,32.60
2018-04-30T08:39:46.448Z,32.67
2018-04-30T08:42:15.696Z,64.23
2018-04-30T08:44:44.855Z,87.87
2018-04-30T08:47:14.039Z,62.03
2018-04-30T08:49:44.420Z,67.20
2018-04-30T08:52:13.646Z,45.83
2018-04-30T08:54:43.763Z,52.83
2018-04-30T08:57:12.914Z,44.37
2018-04-30T08:59:42.137Z,34.77
2018-04-30T09:02:11.335Z,42.43
2018-04-30T09:04:40.635Z,35.20
2018-04-30T09:07:09.882Z,36.17
2018-04-30T09:09:39.223Z,31.73
2018-04-30T09:12:08.537Z,31.90
2018-04-30T09:14:37.758Z,35.63
2018-04-30T09:17:07.341Z,31.90
2018-04-30T09:19:36.497Z,29.47
2018-04-30T09:22:06.417Z,31.17
2018-04-30T09:27:57.147Z,34.40
2018-04-30T09:30:26.454Z,28.00
2018-04-30T09:32:55.887Z,29.10
2018-04-30T09:35:25.297Z,29.27
2018-04-30T09:37:54.802Z,29.10
2018-04-30T09:40:24.171Z,27.97
2018-04-30T09:42:53.915Z,36.37
2018-04-30T09:45:23.234Z,26.50
2018-04-30T09:47:52.679Z,26.87
2018-04-30T09:53:54.178Z,38.90
2018-04-30T09:56:23.539Z,29.27
2018-04-30T09:58:53.974Z,32.80
2018-04-30T10:01:23.306Z,33.03
2018-04-30T10:03:52.629Z,33.80
2018-04-30T10:06:22.456Z,39.07
2018-04-30T10:08:52.544Z,33.07
2018-04-30T10:11:21.942Z,31.83
2018-04-30T10:13:51.443Z,36.73
2018-04-30T10:16:20.764Z,32.63
2018-04-30T10:18:50.321Z,53.50
2018-04-30T10:21:19.662Z,42.43
2018-04-30T10:23:49.080Z,40.67
2018-04-30T10:26:19.019Z,40.10
2018-04-30T10:28:48.380Z,46.47
2018-04-30T10:31:17.891Z,44.57
2018-04-30T10:33:47.208Z,53.50
2018-04-30T10:39:37.428Z,54.17
2018-04-30T10:42:06.887Z,58.13
2018-04-30T10:44:36.197Z,55.30
2018-04-30T10:47:05.573Z,55.50
2018-04-30T10:49:35.001Z,60.40
2018-04-30T10:52:04.312Z,54.10
2018-04-30T10:54:33.776Z,52.73
2018-04-30T10:57:03.118Z,47.67
2018-04-30T10:59:32.436Z,43.87
2018-04-30T11:02:01.787Z,42.67
2018-04-30T11:04:31.106Z,36.10
2018-04-30T11:07:00.409Z,36.97
2018-04-30T11:09:29.764Z,32.53
2018-04-30T11:11:59.091Z,44.70
2018-04-30T11:14:28.394Z,46.97
2018-04-30T11:16:57.777Z,37.70
2018-04-30T11:19:27.096Z,44.33
2018-04-30T11:21:56.440Z,41.37
2018-04-30T11:24:25.807Z,42.50
2018-04-30T11:26:55.123Z,36.90
2018-04-30T11:29:24.465Z,42.60
2018-04-30T11:31:53.847Z,41.33
2018-04-30T11:34:23.196Z,43.53
2018-04-30T11:36:53.131Z,39.47
2018-04-30T11:39:22.519Z,38.83
2018-04-30T11:41:51.874Z,39.73
2018-04-30T11:44:21.207Z,37.33
2018-04-30T11:46:50.611Z,36.50
2018-04-30T11:49:20.847Z,40.83
2018-04-30T11:51:50.274Z,37.23
2018-04-30T11:54:19.683Z,41.77
2018-04-30T11:56:49.149Z,38.97
2018-04-30T11:59:18.557Z,38.60
2018-04-30T12:01:48.005Z,39.50
2018-04-30T12:04:23.733Z,36.47
2018-04-30T12:06:54.275Z,47.90
2018-04-30T12:09:23.882Z,40.73
2018-04-30T12:11:53.222Z,43.40
2018-04-30T12:14:22.572Z,49.83
2018-04-30T12:16:52.354Z,45.83
2018-04-30T12:19:21.663Z,39.80
2018-04-30T12:21:51.978Z,40.27
2018-04-30T12:24:21.616Z,38.47
2018-04-30T12:26:50.996Z,37.37
2018-04-30T12:29:22.349Z,37.03
2018-04-30T12:31:53.311Z,34.10
2018-04-30T12:34:24.053Z,42.97
2018-04-30T12:36:53.902Z,40.10
2018-04-30T12:39:23.312Z,43.73
2018-04-30T12:41:53.089Z,38.93
2018-04-30T12:44:23.726Z,33.07
2018-04-30T12:46:53.870Z,37.67
2018-04-30T12:49:25.577Z,37.60
2018-04-30T12:51:55.152Z,35.60
2018-04-30T12:54:24.943Z,39.43
2018-04-30T12:56:57.166Z,27.40
2018-04-30T12:59:35.602Z,33.10
2018-04-30T13:02:10.859Z,29.50
2018-04-30T13:04:40.644Z,26.70
2018-04-30T13:07:10.862Z,24.17
2018-04-30T13:09:40.598Z,32.97
2018-04-30T13:12:09.919Z,30.10
2018-04-30T13:14:40.164Z,30.30
2018-04-30T13:17:10.078Z,26.63
2018-04-30T13:19:39.473Z,24.43
2018-04-30T13:22:09.189Z,25.30
2018-04-30T13:24:38.520Z,24.70
2018-04-30T13:27:07.977Z,24.00
2018-04-30T13:29:37.301Z,24.50
2018-04-30T13:32:06.608Z,25.70
2018-04-30T13:34:36.064Z,22.47
2018-04-30T13:37:05.556Z,24.73
2018-04-30T13:39:34.917Z,32.53
2018-04-30T13:42:04.431Z,27.37
2018-04-30T13:44:33.768Z,27.00
2018-04-30T13:47:04.269Z,26.30
2018-04-30T13:49:42.564Z,25.63
2018-04-30T13:52:12.701Z,25.83
2018-04-30T13:54:42.124Z,27.87
2018-04-30T13:57:12.843Z,21.57
2018-04-30T13:59:42.372Z,24.33
2018-04-30T14:02:11.691Z,25.10
2018-04-30T14:04:41.001Z,25.87
2018-04-30T14:07:10.303Z,24.30
2018-04-30T14:09:39.758Z,23.57
2018-04-30T14:12:09.068Z,28.33
2018-04-30T14:14:39.133Z,23.37
2018-04-30T14:17:08.525Z,32.77
2018-04-30T14:19:37.861Z,27.83
2018-04-30T14:22:07.200Z,27.57
2018-04-30T14:24:44.137Z,21.27
2018-04-30T14:27:14.205Z,22.83
2018-04-30T14:29:43.669Z,22.47
2018-04-30T14:32:13.012Z,29.70
2018-04-30T14:34:42.312Z,27.50
2018-04-30T14:37:11.764Z,30.63
2018-04-30T14:39:42.189Z,28.70
2018-04-30T14:42:11.535Z,22.57
2018-04-30T14:44:41.467Z,34.87
2018-04-30T14:47:11.208Z,27.00
2018-04-30T14:49:40.523Z,27.67
2018-04-30T14:52:10.005Z,21.93
2018-04-30T14:54:40.852Z,21.57
2018-04-30T14:57:11.172Z,21.60
2018-04-30T14:59:41.245Z,22.17
2018-04-30T15:02:11.371Z,18.20
2018-04-30T15:04:40.721Z,17.77
2018-04-30T15:07:10.049Z,17.80
2018-04-30T15:09:43.240Z,21.53
2018-04-30T15:12:13.111Z,19.77
2018-04-30T15:14:48.941Z,19.67
2018-04-30T15:17:18.279Z,17.30
2018-04-30T15:19:48.208Z,18.37
2018-04-30T15:22:18.866Z,17.13
2018-04-30T15:24:54.892Z,18.63
2018-04-30T15:27:27.929Z,15.87
2018-04-30T15:29:57.671Z,15.83
2018-04-30T15:32:27.104Z,15.80
2018-04-30T15:34:56.660Z,14.03
2018-04-30T15:37:26.409Z,16.57
2018-04-30T15:39:55.878Z,19.47
2018-04-30T15:42:25.554Z,18.17
2018-04-30T15:44:54.998Z,13.40
2018-04-30T15:50:45.601Z,17.83
2018-04-30T15:53:15.884Z,13.77
2018-04-30T15:55:52.762Z,11.87
2018-04-30T15:58:23.562Z,15.83
2018-04-30T16:00:55.032Z,13.97
2018-04-30T16:03:24.508Z,16.40
2018-04-30T16:06:02.782Z,13.60
2018-04-30T16:08:33.204Z,15.03
2018-04-30T16:11:03.237Z,20.07
2018-04-30T16:13:36.409Z,15.33
2018-04-30T16:16:12.347Z,19.10
2018-04-30T16:18:41.936Z,22.93
2018-04-30T16:21:16.378Z,23.73
2018-04-30T16:23:45.910Z,16.77
2018-04-30T16:26:16.423Z,20.53
2018-04-30T16:28:45.728Z,22.23
2018-04-30T16:31:17.709Z,17.27
2018-04-30T16:33:47.756Z,22.70
2018-04-30T16:36:18.525Z,17.63
2018-04-30T16:38:47.891Z,27.03
2018-04-30T16:41:17.354Z,18.17
2018-04-30T16:43:46.956Z,20.50
2018-04-30T16:49:49.347Z,17.20
2018-04-30T16:55:40.267Z,14.67
2018-04-30T16:58:12.928Z,17.10
2018-04-30T17:00:43.395Z,14.90
2018-04-30T17:03:12.884Z,16.50
2018-04-30T17:05:43.251Z,23.23
2018-04-30T17:08:15.590Z,18.23
2018-04-30T17:10:45.397Z,16.53
2018-04-30T17:13:15.641Z,20.07
2018-04-30T17:15:47.511Z,15.97
2018-04-30T17:18:17.036Z,24.70
2018-04-30T17:20:46.534Z,14.80
2018-04-30T17:23:16.871Z,24.13
2018-04-30T17:25:46.400Z,18.27
2018-04-30T17:28:17.493Z,10.27
2018-04-30T17:30:46.939Z,19.13
2018-04-30T17:33:16.979Z,14.73
2018-04-30T17:35:47.648Z,18.27
2018-04-30T17:38:21.719Z,15.23
2018-04-30T17:40:55.549Z,12.30
2018-04-30T17:43:26.034Z,12.30
2018-04-30T17:46:02.834Z,13.37
2018-04-30T17:48:32.789Z,12.63
2018-04-30T17:51:02.484Z,15.30
2018-04-30T17:53:37.006Z,15.43
2018-04-30T17:56:15.349Z,13.87
2018-04-30T17:58:45.379Z,13.17
2018-04-30T18:01:15.871Z,11.20
2018-04-30T18:03:47.593Z,15.70
2018-04-30T18:06:19.060Z,16.47
2018-04-30T18:12:21.738Z,14.50
2018-04-30T18:14:52.971Z,23.53
2018-04-30T18:17:24.387Z,15.83
2018-04-30T18:19:57.668Z,14.57
2018-04-30T18:22:39.773Z,18.97
2018-04-30T18:25:22.425Z,16.93
2018-04-30T18:28:05.809Z,14.33
2018-04-30T18:30:54.395Z,15.30
2018-04-30T18:33:35.135Z,17.93
2018-04-30T18:36:18.165Z,15.47
2018-04-30T18:38:57.995Z,18.30
2018-04-30T18:41:43.618Z,18.37
2018-04-30T18:44:37.208Z,22.27
2018-04-30T18:47:23.263Z,19.73
2018-04-30T18:50:14.808Z,16.17
2018-04-30T18:52:57.845Z,13.70
2018-04-30T18:55:30.147Z,16.27
2018-04-30T18:58:07.693Z,18.87
2018-04-30T19:00:39.837Z,17.03
2018-04-30T19:03:11.816Z,13.77
2018-04-30T19:05:41.731Z,14.90
2018-04-30T19:08:11.182Z,15.90
2018-04-30T19:10:40.782Z,13.93
2018-04-30T19:13:10.421Z,13.93
2018-04-30T19:15:40.880Z,20.30
2018-04-30T19:18:14.997Z,14.83
2018-04-30T19:20:44.930Z,12.98
2018-04-30T19:23:18.431Z,16.17
2018-04-30T19:25:47.851Z,16.45
2018-04-30T19:28:17.439Z,15.57
2018-04-30T19:30:46.976Z,12.95
2018-04-30T19:33:20.589Z,11.73
2018-04-30T19:35:50.287Z,11.80
2018-04-30T19:38:19.741Z,11.50
2018-04-30T19:40:49.212Z,11.03
2018-04-30T19:43:18.865Z,14.90
2018-04-30T19:45:50.088Z,10.53
2018-04-30T19:48:20.504Z,13.93
2018-04-30T19:50:50.086Z,11.17
2018-04-30T19:53:20.168Z,13.85
2018-04-30T19:55:49.619Z,15.73
2018-04-30T19:58:19.378Z,12.20
2018-04-30T20:00:49.258Z,10.57
2018-04-30T20:03:18.952Z,17.07
2018-04-30T20:05:50.245Z,13.80
2018-04-30T20:08:29.412Z,16.10
2018-04-30T20:10:59.278Z,11.37
2018-04-30T20:13:37.807Z,17.07
2018-04-30T20:16:08.634Z,13.97
2018-04-30T20:18:42.118Z,14.40
2018-04-30T20:25:12.739Z,13.60
2018-04-30T20:30:24.487Z,12.63
2018-04-30T20:32:57.244Z,10.53
2018-04-30T20:35:32.297Z,11.40
2018-04-30T20:38:07.632Z,14.37
2018-04-30T20:40:40.184Z,11.40
2018-04-30T20:43:17.638Z,12.60
2018-04-30T20:45:58.175Z,12.27
2018-04-30T20:48:39.798Z,13.13
2018-04-30T20:51:13.989Z,11.50
2018-04-30T20:53:43.545Z,10.70
2018-04-30T20:56:13.046Z,9.63
2018-04-30T20:58:43.165Z,13.83
2018-04-30T21:01:15.082Z,8.97
2018-04-30T21:03:51.401Z,10.17
2018-04-30T21:06:20.879Z,10.93
2018-04-30T21:09:01.444Z,15.73
2018-04-30T21:11:31.025Z,15.20
2018-04-30T21:14:00.330Z,13.60
2018-04-30T21:16:29.833Z,11.10
2018-04-30T21:19:00.566Z,14.00
2018-04-30T21:21:35.459Z,12.10
2018-04-30T21:24:05.463Z,13.33
2018-04-30T21:26:35.595Z,15.68
2018-04-30T21:29:05.000Z,13.27
2018-04-30T21:31:35.136Z,13.13
2018-04-30T21:34:04.821Z,13.20
2018-04-30T21:36:37.375Z,12.03
2018-04-30T21:39:07.490Z,11.80
2018-04-30T21:41:36.945Z,11.57
2018-04-30T21:44:07.193Z,16.17
2018-04-30T21:46:37.632Z,16.87
2018-04-30T21:49:07.009Z,11.97
2018-04-30T21:54:57.811Z,13.57
2018-04-30T21:57:27.172Z,15.67
2018-04-30T21:59:56.644Z,14.03
2018-04-30T22:02:27.474Z,14.13
2018-04-30T22:04:57.540Z,16.10
2018-04-30T22:07:27.099Z,15.97
2018-04-30T22:09:56.797Z,12.50
2018-04-30T22:15:57.909Z,13.77
2018-04-30T22:18:27.167Z,17.03
2018-04-30T22:20:56.487Z,21.80
2018-04-30T22:26:47.573Z,21.53
2018-04-30T22:32:38.351Z,15.57
2018-04-30T22:35:08.353Z,17.30
2018-04-30T22:37:37.608Z,14.10
2018-04-30T22:40:07.658Z,15.37
2018-04-30T22:42:36.873Z,15.43
2018-04-30T22:45:06.090Z,16.67
2018-04-30T22:47:35.580Z,18.50
2018-04-30T22:50:04.901Z,25.00
2018-04-30T22:52:34.186Z,17.63
2018-04-30T22:55:03.509Z,18.17
2018-04-30T22:57:32.744Z,16.40
2018-04-30T23:00:02.020Z,18.53
2018-04-30T23:02:32.152Z,15.70
2018-04-30T23:05:01.364Z,14.83
2018-04-30T23:07:30.809Z,19.70
2018-04-30T23:10:00.108Z,16.60
2018-04-30T23:12:29.357Z,20.00
2018-04-30T23:14:58.613Z,13.57
2018-04-30T23:17:27.962Z,16.50
2018-04-30T23:19:57.174Z,16.27
2018-04-30T23:22:27.795Z,18.13
2018-04-30T23:28:17.935Z,15.93
2018-04-30T23:30:47.357Z,15.47
2018-04-30T23:33:16.786Z,19.73
2018-04-30T23:35:47.036Z,10.47
2018-04-30T23:38:16.449Z,12.93
2018-04-30T23:40:46.684Z,16.73
2018-04-30T23:43:18.577Z,12.97
2018-04-30T23:45:48.044Z,15.27
2018-04-30T23:48:17.473Z,14.20
2018-04-30T23:50:47.675Z,15.90
2018-04-30T23:53:17.138Z,22.17
2018-04-30T23:55:46.552Z,16.47
2018-04-30T23:58:16.895Z,15.30
